Lemoore Naval Air Station (Reeves Field) Airport
KNLC : now visible

Airfield :











YOU CAN JOIN US ON...

 
LOGIN :

Register | Disclaimer

   EN    FR    IT 

 









Legend :    VFR   Marginal VFR   IFR   Intensive IFR   Very Intensive IFR
Visi :
Ceiling :
>= 8 km
>= 3000ft
5 to 8 km
1000 to 3000 ft
1500m to 5 km
500 to 1000 ft
800 to 1500m
200 to 500 ft
< 800m
< 200 ft
Symbols :   Thunderstorms  Fog  Heavy snow  Heavy precipitations  Wind > 20 kt






- Airport Elevation : 232 ft


KNLC - Lemoore Naval Air Station (Reeves Field)

CURRENT METAR :
  • 170056Z 34018G25KT 10SM FEW060 FEW200 33/02 A2972 RMK AO2 PK WND 34028/2359 SLP063 RH/14 T03280022

EXPIRED METARs :
  • 162356Z 34018G26KT 10SM FEW060 SCT200 34/00 A2973 RMK AO2 PK WND 33028/2258 SLP067 RH/12 T03390000 10344 20278 56018
  • 162256Z 33018G26KT 10SM FEW060 SCT200 33/03 A2975 RMK AO2 PK WND 33028/2208 SLP073 RH/11 T03330028
  • 162156Z 35017G28KT 10SM FEW060 FEW200 33/02 A2977 RMK AO2 PK WND 01028/2137 SLP079 RH/13 T03330017
  • 162056Z 32017G24KT 10SM FEW060 FEW200 33/03 A2979 RMK AO2 PK WND 33027/2049 SLP085 RH/15 T03330033 58015

TAF TAF KNLC
Valid from the 16 at 23:00 until the 17 at 23:00 UTC


1623/1723 34018G30KT 9999 SCT060 QNH2970INS
TEMPO 1701/1707 34017G24KT
BECMG 1707/1709 31009KT 9999 SKC QNH2974INS LAST NO AMDS AFT 1703 NEXT 1715 TX34/1722Z TN18/1713Z FS30205
KZOA FIR / North America



MET'MAP, your aeronautical weather chart ! - Copyright ORBIFLY December 2007 - Disclaimer

ORBIFLY MET'MAP TEAM :

Programming & Development : Alexandra Zaïnal
Original concept : Baudouin d'Aumeries
Technical & hardware support : Manuel Goepfert
Assistance : Marc-Olivier Méhu




SOURCES & CREDITS :

   NOAA       Earth
Advisory